Melvindale, MI (48122)

3:24 AM EST on December 27, 2014 (GMT -0500)
Dearborn Headquarters | Change Station
CLOSE
Current Station
Personal Weather Station
Location: Dearborn, Mi
Elevation: 597 ft
Nearby Weather Stations

Elev 597 ft 42.31 °N, 83.20 °W | Updated 8 seconds ago

Partly Cloudy
Partly Cloudy
40.6 °F
Feels Like 41 °F
N
0.0
Wind Variable Wind from South
Gusts 0.0 mph

Today
High -- | Low -- °F
--% Chance of Precip.
Yesterday
High -- | Low -- °F
Precip. -- in
8:00 AM 5:07 PM
Waxing Crescent, 34% visible
Pressure 30.13 in
Visibility 10.0 miles
Clouds Few 4400 ft
Windchill 41 °F
Dew Point 9 °F
Humidity 27%
Rainfall 0.00 in
Snow Depth Not available.
UV 0 out of 12
Pollen .10 out of 12
Air Quality Not available.
Flu Activity Not available.
METAR KDTW 270753Z 22005KT 10SM FEW044 03/02 A3012 RMK AO2 SLP203 T00330017 $

More Conditions Fewer Conditions

Pressure 30.13 in
Visibility 10.0 miles
Clouds Few 4400 ft
Windchill 41 °F
Dew Point 9 °F
Humidity 27%
Rainfall 0.00 in
Snow Depth Not available.
UV 0 out of 12
Pollen .10 out of 12
Air Quality Not available.
Flu Activity Not available.
METAR KDTW 270753Z 22005KT 10SM FEW044 03/02 A3012 RMK AO2 SLP203 T00330017 $

More Conditions Fewer Conditions

10-Day Weather Forecast

Almanac

Astronomy

Dec. 27, 2014 Rise Set
Actual Time
Civil Twilight
Nautical Twilight
Astronomical Twilight
Moon
Length of Visible Light
Length of Day
Tomorrow will be .
, % of the Moon is Illuminated

Today's Extremes

State Highs State Lows

Community

WunderPhotos

Upload Photos

1,780,863 photos uploaded!

WunderBlogs® & News

Nearby

Air Quality

  Air Quality AQ Index Pollutant
Not available.

Snow Depth

Station Depth Elevation

Earthquake Activity

City Distance Mag. Time & Date
Minimum magnitude displayed is 2.5.

Coastal Water Temperatures

Place Temperature

Nearby Weather Stations